Time;durP1;ratioP1;P1;durP2;ratioP2;P2;SDS_P1;SDS_P2;PMS_P1;PMS_P2;Temp;Humidity;BMP_temperature;BMP_pressure;BME280_temperature;BME280_humidity;BME280_pressure;Samples;Min_cycle;Max_cycle;Signal;HPM_P1;HPM_P2
2021/12/16 00:01:47;;;;;;;17.85;12.25;;;;;;;;;;4807913;29;20615;-78
2021/12/16 00:29:31;;;;;;;16.13;13.05;;;;;;;;;;4815692;29;20522;-76
2021/12/16 00:31:58;;;;;;;16.33;12.90;;;;;;;;;;4798156;29;20050;-76
2021/12/16 00:34:28;;;;;;;13.40;11.50;;;;;;;;;;4814030;29;20046;-76
2021/12/16 00:36:55;;;;;;;13.38;11.55;;;;;;;;;;4813482;29;20053;-76
2021/12/16 00:39:25;;;;;;;15.73;11.48;;;;;;;;;;4815519;29;20050;-75
2021/12/16 00:41:59;;;;;;;13.73;11.65;;;;;;;;;;4825586;29;20069;-75
2021/12/16 00:47:14;;;;;;;14.55;11.07;;;;;;;;;;4804486;29;21670;-75
2021/12/16 00:49:47;;;;;;;12.93;10.70;;;;;;;;;;4793489;29;20051;-75
2021/12/16 00:55:17;;;;;;;17.13;12.02;;;;;;;;;;4810853;29;20078;-75
2021/12/16 00:57:48;;;;;;;15.23;11.75;;;;;;;;;;4805054;29;20091;-75
2021/12/16 01:00:17;;;;;;;15.30;11.93;;;;;;;;;;4795584;29;20077;-75
2021/12/16 01:03:18;;;;;;;19.98;14.70;;;;;;;;;;4807627;29;20119;-75
2021/12/16 01:06:07;;;;;;;16.65;12.27;;;;;;;;;;4790184;29;20050;-75
2021/12/16 01:08:52;;;;;;;12.95;10.73;;;;;;;;;;4815797;29;20591;-75
2021/12/16 01:34:27;;;;;;;14.60;11.90;;;;;;;;;;4819564;29;20099;-75
2021/12/16 01:37:21;;;;;;;13.48;11.07;;;;;;;;;;4811180;29;20158;-75
2021/12/16 01:50:17;;;;;;;13.45;11.82;;;;;;;;;;4821036;29;20156;-75
2021/12/16 01:55:25;;;;;;;12.32;9.63;;;;;;;;;;4801657;29;20428;-75
2021/12/16 01:57:57;;;;;;;13.38;10.60;;;;;;;;;;4843978;29;20049;-75
2021/12/16 02:00:43;;;;;;;17.05;12.02;;;;;;;;;;4819090;29;20539;-75
2021/12/16 02:03:12;;;;;;;20.55;14.90;;;;;;;;;;4834701;29;20054;-75
2021/12/16 02:08:33;;;;;;;18.25;14.30;;;;;;;;;;4834502;29;20077;-75
2021/12/16 02:35:41;;;;;;;15.60;12.93;;;;;;;;;;4795533;29;20095;-75
2021/12/16 02:38:12;;;;;;;11.63;9.70;;;;;;;;;;4798185;29;20531;-75
2021/12/16 02:40:41;;;;;;;14.70;12.10;;;;;;;;;;4796123;29;20107;-75
2021/12/16 02:48:30;;;;;;;14.35;11.75;;;;;;;;;;4800030;29;20058;-75
2021/12/16 02:51:01;;;;;;;13.35;11.95;;;;;;;;;;4809463;29;20107;-75
2021/12/16 02:53:28;;;;;;;14.27;11.85;;;;;;;;;;4819217;29;20460;-75
2021/12/16 02:55:56;;;;;;;15.68;11.82;;;;;;;;;;4820089;29;20052;-75
2021/12/16 02:58:23;;;;;;;13.43;11.20;;;;;;;;;;4818192;29;20088;-76
2021/12/16 03:01:04;;;;;;;15.43;13.30;;;;;;;;;;4818080;29;20376;-75
2021/12/16 03:03:34;;;;;;;15.52;12.65;;;;;;;;;;4811172;29;20038;-75
2021/12/16 03:06:03;;;;;;;15.63;11.73;;;;;;;;;;4818338;29;20496;-75
2021/12/16 03:08:32;;;;;;;14.20;11.57;;;;;;;;;;4815731;29;20134;-75
2021/12/16 03:11:15;;;;;;;13.50;11.50;;;;;;;;;;4818922;29;20125;-75
2021/12/16 03:14:20;;;;;;;14.73;12.32;;;;;;;;;;4816494;29;20043;-75
2021/12/16 03:16:45;;;;;;;21.00;14.00;;;;;;;;;;4815911;29;20121;-75
2021/12/16 03:21:50;;;;;;;14.82;11.60;;;;;;;;;;4819643;29;20139;-75
2021/12/16 03:35:41;;;;;;;15.13;11.82;;;;;;;;;;4816834;29;20424;-75
2021/12/16 03:38:09;;;;;;;14.55;11.00;;;;;;;;;;4817670;29;20077;-75
2021/12/16 03:40:38;;;;;;;19.13;14.10;;;;;;;;;;4816975;29;20095;-75
2021/12/16 03:43:08;;;;;;;13.73;10.73;;;;;;;;;;4814648;29;20072;-75
2021/12/16 03:48:54;;;;;;;12.75;10.85;;;;;;;;;;4836936;29;20214;-75
2021/12/16 03:51:32;;;;;;;17.60;13.30;;;;;;;;;;4825041;29;20062;-75
2021/12/16 03:54:03;;;;;;;13.80;10.98;;;;;;;;;;4816748;29;20492;-75
2021/12/16 03:56:32;;;;;;;12.18;10.18;;;;;;;;;;4813090;29;20053;-75
2021/12/16 03:59:23;;;;;;;11.73;9.43;;;;;;;;;;4817294;29;20062;-75
2021/12/16 04:02:15;;;;;;;11.85;9.25;;;;;;;;;;4811309;29;20126;-75
2021/12/16 04:04:45;;;;;;;15.15;11.40;;;;;;;;;;4818699;29;20050;-75
2021/12/16 04:07:14;;;;;;;14.82;11.63;;;;;;;;;;4817412;29;20053;-75
2021/12/16 04:10:05;;;;;;;17.55;13.43;;;;;;;;;;4821147;29;20070;-75
2021/12/16 04:12:33;;;;;;;14.10;10.40;;;;;;;;;;4800558;29;20625;-75
2021/12/16 04:15:01;;;;;;;15.55;11.20;;;;;;;;;;4816819;29;20502;-75
2021/12/16 04:17:36;;;;;;;14.98;11.45;;;;;;;;;;4821470;29;20500;-75
2021/12/16 04:20:05;;;;;;;21.67;15.10;;;;;;;;;;4817103;29;20111;-75
2021/12/16 04:22:38;;;;;;;17.48;12.93;;;;;;;;;;4819142;29;20051;-75
2021/12/16 04:25:09;;;;;;;15.68;11.80;;;;;;;;;;4815530;29;20039;-75
2021/12/16 04:27:37;;;;;;;13.30;11.90;;;;;;;;;;4802717;29;20457;-75
2021/12/16 04:30:07;;;;;;;18.80;12.60;;;;;;;;;;4822115;29;20051;-75
2021/12/16 04:32:37;;;;;;;14.90;11.30;;;;;;;;;;4800532;29;20111;-74
2021/12/16 04:35:05;;;;;;;15.75;11.77;;;;;;;;;;4817108;29;20103;-75
2021/12/16 04:37:34;;;;;;;15.63;12.13;;;;;;;;;;4815889;29;20051;-75
2021/12/16 04:40:04;;;;;;;17.10;12.93;;;;;;;;;;4817988;29;20043;-75
2021/12/16 04:42:33;;;;;;;12.95;11.32;;;;;;;;;;4815045;29;20066;-75
2021/12/16 04:45:00;;;;;;;17.55;11.85;;;;;;;;;;4817031;29;20073;-75
2021/12/16 04:47:30;;;;;;;15.80;12.80;;;;;;;;;;4816307;29;20468;-75
2021/12/16 04:49:57;;;;;;;17.05;13.60;;;;;;;;;;4817357;29;20514;-75
2021/12/16 04:52:25;;;;;;;15.05;12.00;;;;;;;;;;4820370;29;20062;-75
2021/12/16 04:54:52;;;;;;;15.43;12.18;;;;;;;;;;4815074;29;20054;-75
2021/12/16 04:57:20;;;;;;;15.57;13.27;;;;;;;;;;4820413;29;20057;-75
2021/12/16 04:59:48;;;;;;;17.65;12.93;;;;;;;;;;4820022;29;20288;-75
2021/12/16 05:02:20;;;;;;;13.63;11.52;;;;;;;;;;4814703;29;20108;-75
2021/12/16 05:05:18;;;;;;;11.57;10.27;;;;;;;;;;4801614;29;20068;-75
2021/12/16 05:07:47;;;;;;;17.50;12.52;;;;;;;;;;4794101;29;20420;-75
2021/12/16 05:10:30;;;;;;;13.70;11.18;;;;;;;;;;4784847;29;20242;-75
2021/12/16 05:13:19;;;;;;;16.70;12.30;;;;;;;;;;4781995;29;20066;-75
2021/12/16 05:15:47;;;;;;;14.43;11.68;;;;;;;;;;4777877;29;20094;-75
2021/12/16 05:18:22;;;;;;;13.40;11.43;;;;;;;;;;4763786;29;20055;-75
2021/12/16 05:20:55;;;;;;;17.85;12.85;;;;;;;;;;4783741;29;20452;-75
2021/12/16 05:28:42;;;;;;;17.10;13.27;;;;;;;;;;4802243;29;20061;-75
2021/12/16 05:31:10;;;;;;;16.50;12.75;;;;;;;;;;4782955;29;20059;-75
2021/12/16 05:33:42;;;;;;;15.85;12.38;;;;;;;;;;4805204;29;20115;-75
2021/12/16 05:36:19;;;;;;;17.83;14.57;;;;;;;;;;4796239;29;20138;-75
2021/12/16 05:38:47;;;;;;;18.20;13.82;;;;;;;;;;4782412;29;20076;-75
2021/12/16 05:41:17;;;;;;;19.23;14.73;;;;;;;;;;4805808;29;20070;-75
2021/12/16 05:43:47;;;;;;;;;;;;;;;;;;4816927;29;20046;-75
2021/12/16 05:46:15;;;;;;;17.08;14.02;;;;;;;;;;4816342;29;19928;-75
2021/12/16 05:48:47;;;;;;;16.35;13.18;;;;;;;;;;4798616;29;20126;-75
2021/12/16 05:51:17;;;;;;;17.27;14.43;;;;;;;;;;4776902;29;20589;-75
2021/12/16 05:53:46;;;;;;;18.38;14.82;;;;;;;;;;4796388;29;20066;-75
2021/12/16 05:56:37;;;;;;;18.85;14.02;;;;;;;;;;4792002;29;20068;-75
2021/12/16 05:59:05;;;;;;;17.52;13.50;;;;;;;;;;4804739;29;20484;-75
2021/12/16 06:01:36;;;;;;;18.67;14.77;;;;;;;;;;4792128;29;20058;-75
2021/12/16 06:04:03;;;;;;;18.27;13.32;;;;;;;;;;4789603;29;20115;-75
2021/12/16 06:06:33;;;;;;;17.23;13.57;;;;;;;;;;4817359;24;20054;-75
2021/12/16 06:09:01;;;;;;;20.33;15.38;;;;;;;;;;4811995;29;20153;-74
2021/12/16 06:11:31;;;;;;;17.63;14.25;;;;;;;;;;4805619;29;20059;-74
2021/12/16 06:22:35;;;;;;;17.48;14.20;;;;;;;;;;4789510;29;20067;-74
2021/12/16 06:27:52;;;;;;;18.58;14.88;;;;;;;;;;4796341;29;20350;-74
2021/12/16 06:30:25;;;;;;;17.42;13.90;;;;;;;;;;4797913;29;20129;-75
2021/12/16 06:32:53;;;;;;;18.42;14.02;;;;;;;;;;4809692;29;20066;-74
2021/12/16 06:35:21;;;;;;;31.92;22.95;;;;;;;;;;4803209;29;20429;-74
2021/12/16 06:37:49;;;;;;;63.83;42.22;;;;;;;;;;4799150;29;20407;-74
2021/12/16 06:40:25;;;;;;;29.77;21.85;;;;;;;;;;4805236;29;20094;-74
2021/12/16 06:43:15;;;;;;;23.05;17.95;;;;;;;;;;4808938;29;20065;-74
2021/12/16 06:45:46;;;;;;;21.20;16.45;;;;;;;;;;4785727;29;20463;-74
2021/12/16 06:48:19;;;;;;;24.90;18.92;;;;;;;;;;4807853;29;20496;-74
2021/12/16 06:50:56;;;;;;;26.70;18.45;;;;;;;;;;4799391;29;20096;-74
2021/12/16 06:53:47;;;;;;;27.27;19.00;;;;;;;;;;4808127;29;20100;-74
2021/12/16 06:56:20;;;;;;;21.13;15.05;;;;;;;;;;4802235;29;20137;-74
2021/12/16 06:58:52;;;;;;;24.13;16.98;;;;;;;;;;4799266;29;20062;-74
2021/12/16 07:04:17;;;;;;;27.27;17.60;;;;;;;;;;4800000;29;20070;-74
2021/12/16 07:06:45;;;;;;;24.42;16.83;;;;;;;;;;4802108;29;20085;-74
2021/12/16 07:09:14;;;;;;;23.38;15.52;;;;;;;;;;4809495;29;20476;-74
2021/12/16 07:11:43;;;;;;;21.80;15.65;;;;;;;;;;4799182;29;20096;-74
2021/12/16 07:14:14;;;;;;;26.83;17.08;;;;;;;;;;4802366;29;20472;-74
2021/12/16 07:16:46;;;;;;;25.40;17.15;;;;;;;;;;4811731;29;20482;-74
2021/12/16 07:19:13;;;;;;;25.75;16.50;;;;;;;;;;4815149;29;20694;-74
2021/12/16 07:21:41;;;;;;;21.05;15.10;;;;;;;;;;4809112;29;20042;-74
2021/12/16 07:24:10;;;;;;;25.90;16.05;;;;;;;;;;4806515;29;20046;-74
2021/12/16 07:26:38;;;;;;;28.13;17.25;;;;;;;;;;4814775;29;20793;-74
2021/12/16 07:29:06;;;;;;;23.10;15.75;;;;;;;;;;4822930;29;20143;-75
2021/12/16 07:31:34;;;;;;;25.02;15.70;;;;;;;;;;4819588;29;20099;-74
2021/12/16 07:34:01;;;;;;;23.35;15.27;;;;;;;;;;4823709;29;20149;-73
2021/12/16 07:36:30;;;;;;;25.63;17.65;;;;;;;;;;4817437;29;20070;-74
2021/12/16 07:38:57;;;;;;;29.55;18.98;;;;;;;;;;4822592;29;20050;-75
2021/12/16 07:41:31;;;;;;;22.65;15.93;;;;;;;;;;4819995;29;20042;-74
2021/12/16 07:44:12;;;;;;;23.63;16.83;;;;;;;;;;4821740;29;20039;-73
2021/12/16 07:46:39;;;;;;;23.23;15.68;;;;;;;;;;4810498;29;20046;-73
2021/12/16 07:49:07;;;;;;;18.23;13.77;;;;;;;;;;4811131;29;20134;-72
2021/12/16 07:51:35;;;;;;;23.08;16.48;;;;;;;;;;4819767;29;20207;-73
2021/12/16 07:54:03;;;;;;;24.88;16.55;;;;;;;;;;4818888;29;20379;-74
2021/12/16 07:56:31;;;;;;;24.15;15.57;;;;;;;;;;4820831;29;20054;-73
2021/12/16 07:58:59;;;;;;;21.60;15.60;;;;;;;;;;4822904;29;20170;-73
2021/12/16 08:01:27;;;;;;;18.45;13.75;;;;;;;;;;4805214;29;20059;-73
2021/12/16 08:03:55;;;;;;;19.52;14.82;;;;;;;;;;4809960;29;20042;-72
2021/12/16 08:06:25;;;;;;;18.25;14.30;;;;;;;;;;4799781;29;20084;-73
2021/12/16 08:08:55;;;;;;;20.98;15.40;;;;;;;;;;4807763;29;20484;-72
2021/12/16 08:11:24;;;;;;;21.35;14.88;;;;;;;;;;4802875;29;20096;-73
2021/12/16 08:13:51;;;;;;;20.98;15.02;;;;;;;;;;4802449;29;20173;-73
2021/12/16 08:16:22;;;;;;;23.25;15.45;;;;;;;;;;4804607;29;20083;-73
2021/12/16 08:18:50;;;;;;;21.08;15.82;;;;;;;;;;4800089;29;20452;-73
2021/12/16 08:21:17;;;;;;;19.40;14.48;;;;;;;;;;4808289;29;20118;-74
2021/12/16 08:23:45;;;;;;;20.35;15.60;;;;;;;;;;4817033;29;20065;-74
2021/12/16 08:26:15;;;;;;;20.15;14.75;;;;;;;;;;4822806;29;20042;-73
2021/12/16 08:28:44;;;;;;;17.20;13.40;;;;;;;;;;4841592;29;20090;-73
2021/12/16 08:31:12;;;;;;;19.98;14.82;;;;;;;;;;4826785;29;20054;-73
2021/12/16 08:33:39;;;;;;;20.05;15.05;;;;;;;;;;4814059;29;20126;-73
2021/12/16 08:36:08;;;;;;;21.40;16.02;;;;;;;;;;4806579;29;20060;-73
2021/12/16 08:38:36;;;;;;;22.73;16.02;;;;;;;;;;4803662;29;20050;-74
2021/12/16 08:41:08;;;;;;;19.02;15.05;;;;;;;;;;4810150;29;20487;-73
2021/12/16 08:43:44;;;;;;;20.77;14.93;;;;;;;;;;4818479;29;20046;-74
2021/12/16 08:46:14;;;;;;;20.15;15.23;;;;;;;;;;4805894;29;20049;-73
2021/12/16 08:48:42;;;;;;;23.25;15.48;;;;;;;;;;4813460;29;20571;-73
2021/12/16 08:51:10;;;;;;;22.65;16.30;;;;;;;;;;4809904;29;20500;-74
2021/12/16 08:53:38;;;;;;;20.13;15.45;;;;;;;;;;4802021;29;20160;-74
2021/12/16 08:56:06;;;;;;;17.80;14.45;;;;;;;;;;4813634;29;20051;-73
2021/12/16 08:58:34;;;;;;;21.73;13.40;;;;;;;;;;4804895;29;20099;-72
2021/12/16 09:01:07;;;;;;;17.42;12.52;;;;;;;;;;4806317;29;20113;-73
2021/12/16 09:03:34;;;;;;;18.75;14.80;;;;;;;;;;4799432;29;20128;-73
2021/12/16 09:06:02;;;;;;;20.92;15.00;;;;;;;;;;4803371;29;20053;-73
2021/12/16 09:08:30;;;;;;;18.08;14.18;;;;;;;;;;4812896;29;20046;-73
2021/12/16 09:10:58;;;;;;;20.00;15.63;;;;;;;;;;4796066;29;20069;-74
2021/12/16 09:13:25;;;;;;;16.65;12.93;;;;;;;;;;4807306;29;20557;-73
2021/12/16 09:15:56;;;;;;;22.50;15.80;;;;;;;;;;4813243;29;20112;-73
2021/12/16 09:18:29;;;;;;;19.08;14.60;;;;;;;;;;4806448;29;20066;-73
2021/12/16 09:20:58;;;;;;;17.30;13.95;;;;;;;;;;4812888;29;20205;-72
2021/12/16 09:23:30;;;;;;;17.58;14.07;;;;;;;;;;4803890;29;20272;-72
2021/12/16 09:25:58;;;;;;;16.92;14.07;;;;;;;;;;4813430;29;20081;-73
2021/12/16 09:28:27;;;;;;;21.42;14.57;;;;;;;;;;4805272;29;20138;-73
2021/12/16 09:30:55;;;;;;;18.75;14.88;;;;;;;;;;4798115;29;20082;-73
2021/12/16 09:33:25;;;;;;;19.77;14.70;;;;;;;;;;4804981;29;20111;-74
2021/12/16 09:35:55;;;;;;;16.73;14.35;;;;;;;;;;4798061;29;20400;-74
2021/12/16 09:38:23;;;;;;;20.08;15.20;;;;;;;;;;4800921;29;20520;-74
2021/12/16 09:40:54;;;;;;;16.92;14.20;;;;;;;;;;4800727;29;20039;-74
2021/12/16 09:43:26;;;;;;;19.67;14.98;;;;;;;;;;4800143;29;20079;-74
2021/12/16 09:45:55;;;;;;;18.15;14.32;;;;;;;;;;4786213;29;20525;-74
2021/12/16 09:48:22;;;;;;;18.05;13.82;;;;;;;;;;4797232;29;20133;-74
2021/12/16 09:50:50;;;;;;;17.27;13.10;;;;;;;;;;4792667;29;20047;-73
2021/12/16 09:53:18;;;;;;;20.13;14.75;;;;;;;;;;4800494;29;20055;-73
2021/12/16 09:55:50;;;;;;;16.83;14.57;;;;;;;;;;4790560;29;20664;-73
2021/12/16 09:58:18;;;;;;;17.98;13.80;;;;;;;;;;4798511;29;20295;-73
2021/12/16 10:00:45;;;;;;;15.48;13.07;;;;;;;;;;4784903;29;20600;-74
2021/12/16 10:03:13;;;;;;;16.13;13.68;;;;;;;;;;4780204;29;20054;-73
2021/12/16 10:05:40;;;;;;;18.38;13.07;;;;;;;;;;4798071;29;20068;-74
2021/12/16 10:08:09;;;;;;;14.80;12.30;;;;;;;;;;4779636;29;20162;-74
2021/12/16 10:10:37;;;;;;;16.85;13.48;;;;;;;;;;4797275;29;20409;-73
2021/12/16 10:13:06;;;;;;;18.60;13.88;;;;;;;;;;4793739;29;20051;-72
2021/12/16 10:18:23;;;;;;;16.70;13.75;;;;;;;;;;4798936;29;20134;-76
2021/12/16 10:20:56;;;;;;;15.07;12.88;;;;;;;;;;4788336;29;20056;-78
2021/12/16 10:23:24;;;;;;;14.70;13.02;;;;;;;;;;4798259;29;20086;-74
2021/12/16 10:25:57;;;;;;;15.70;12.68;;;;;;;;;;4796710;29;20122;-73
2021/12/16 10:28:29;;;;;;;15.95;12.32;;;;;;;;;;4803201;29;20042;-73
2021/12/16 10:31:01;;;;;;;15.07;11.85;;;;;;;;;;4800616;29;20582;-74
2021/12/16 10:33:29;;;;;;;;;;;;;;;;;;4802617;29;20513;-75
2021/12/16 10:35:58;;;;;;;18.90;12.60;;;;;;;;;;4792491;29;19925;-73
2021/12/16 10:38:25;;;;;;;16.27;12.10;;;;;;;;;;4802121;29;20046;-74
2021/12/16 10:40:54;;;;;;;15.10;12.00;;;;;;;;;;4814490;29;20057;-73
2021/12/16 10:43:40;;;;;;;15.35;12.52;;;;;;;;;;4821147;29;20054;-73
2021/12/16 10:46:11;;;;;;;15.70;11.63;;;;;;;;;;4823127;29;20047;-73
2021/12/16 10:48:43;;;;;;;12.45;11.13;;;;;;;;;;4805238;29;20051;-74
2021/12/16 10:51:19;;;;;;;14.32;11.30;;;;;;;;;;4807329;29;20050;-73
2021/12/16 10:53:47;;;;;;;14.23;11.95;;;;;;;;;;4801674;29;20042;-74
2021/12/16 10:56:15;;;;;;;13.30;11.43;;;;;;;;;;4803429;29;20055;-74
2021/12/16 10:58:59;;;;;;;12.25;10.45;;;;;;;;;;4797167;29;20485;-75
2021/12/16 11:01:41;;;;;;;15.18;11.23;;;;;;;;;;4799010;29;20095;-74
2021/12/16 11:04:19;;;;;;;13.48;11.32;;;;;;;;;;4811643;29;20035;-73
2021/12/16 11:06:58;;;;;;;11.55;10.35;;;;;;;;;;4798486;29;20408;-75
2021/12/16 11:09:38;;;;;;;13.73;11.15;;;;;;;;;;4798556;29;20082;-74
2021/12/16 11:12:11;;;;;;;13.68;10.40;;;;;;;;;;4801079;29;20544;-75
2021/12/16 11:14:40;;;;;;;12.52;10.10;;;;;;;;;;4800796;29;20061;-74
2021/12/16 11:17:11;;;;;;;10.60;9.50;;;;;;;;;;4801878;29;20134;-75
2021/12/16 11:19:47;;;;;;;12.65;10.00;;;;;;;;;;4801107;29;20047;-75
2021/12/16 11:22:17;;;;;;;11.60;9.77;;;;;;;;;;4800062;29;20042;-72
2021/12/16 11:24:46;;;;;;;14.45;9.90;;;;;;;;;;4800534;29;20501;-73
2021/12/16 11:27:19;;;;;;;12.65;10.13;;;;;;;;;;4799988;29;20042;-73
2021/12/16 11:29:47;;;;;;;11.45;10.02;;;;;;;;;;4799400;29;20139;-73
2021/12/16 11:32:33;;;;;;;13.23;10.52;;;;;;;;;;4799862;29;20129;-74
2021/12/16 11:35:00;;;;;;;11.35;9.75;;;;;;;;;;4801684;29;20074;-74
2021/12/16 11:37:29;;;;;;;14.80;10.18;;;;;;;;;;4800695;29;20138;-74
2021/12/16 11:39:56;;;;;;;11.75;10.05;;;;;;;;;;4801247;29;20144;-74
2021/12/16 11:42:27;;;;;;;12.18;10.43;;;;;;;;;;4798512;29;20070;-74
2021/12/16 11:44:57;;;;;;;13.27;10.38;;;;;;;;;;4798914;29;20103;-74
2021/12/16 11:47:25;;;;;;;15.75;10.05;;;;;;;;;;4797324;29;20084;-74
2021/12/16 11:49:55;;;;;;;11.73;9.80;;;;;;;;;;4799058;29;20119;-74
2021/12/16 11:52:29;;;;;;;15.55;10.88;;;;;;;;;;4798797;29;20123;-73
2021/12/16 11:54:57;;;;;;;13.70;10.88;;;;;;;;;;4800647;29;20051;-74
2021/12/16 11:57:27;;;;;;;15.38;10.40;;;;;;;;;;4798307;29;20330;-74
2021/12/16 11:59:58;;;;;;;14.23;9.95;;;;;;;;;;4800826;29;20046;-74
2021/12/16 12:02:26;;;;;;;13.43;9.85;;;;;;;;;;4800209;29;20052;-74
2021/12/16 12:04:55;;;;;;;13.05;9.77;;;;;;;;;;4817688;29;20771;-74
2021/12/16 12:07:23;;;;;;;13.55;9.70;;;;;;;;;;4800691;29;20055;-74
2021/12/16 12:09:52;;;;;;;13.63;10.60;;;;;;;;;;4800523;29;20054;-73
2021/12/16 12:12:43;;;;;;;20.50;13.23;;;;;;;;;;4814983;29;20159;-73
2021/12/16 12:15:13;;;;;;;16.98;12.10;;;;;;;;;;4804570;29;20116;-73
2021/12/16 12:17:50;;;;;;;19.42;11.63;;;;;;;;;;4815946;29;20572;-73
2021/12/16 12:20:18;;;;;;;14.85;10.80;;;;;;;;;;4829021;23;20061;-74
2021/12/16 12:22:49;;;;;;;17.25;12.15;;;;;;;;;;4805432;29;20046;-74
2021/12/16 12:25:17;;;;;;;16.65;11.48;;;;;;;;;;4802011;29;20448;-74
2021/12/16 12:27:44;;;;;;;16.27;11.43;;;;;;;;;;4800539;29;20080;-74
2021/12/16 12:30:12;;;;;;;16.23;11.80;;;;;;;;;;4799914;29;20055;-75
2021/12/16 12:32:41;;;;;;;14.55;10.38;;;;;;;;;;4802132;29;20092;-75
2021/12/16 12:35:17;;;;;;;16.95;11.70;;;;;;;;;;4805226;29;20177;-75
2021/12/16 12:37:46;;;;;;;13.38;11.13;;;;;;;;;;4801079;29;20092;-77
2021/12/16 12:40:22;;;;;;;15.18;11.45;;;;;;;;;;4802557;29;20485;-76
2021/12/16 12:42:50;;;;;;;13.95;10.50;;;;;;;;;;4797203;29;20050;-75
2021/12/16 12:45:20;;;;;;;14.43;12.00;;;;;;;;;;4797486;29;20059;-75
2021/12/16 12:47:52;;;;;;;17.63;12.65;;;;;;;;;;4799674;29;20173;-75
2021/12/16 12:50:19;;;;;;;17.52;12.30;;;;;;;;;;4799390;29;20104;-75
2021/12/16 12:52:50;;;;;;;17.45;14.15;;;;;;;;;;4798317;29;20085;-76
2021/12/16 12:55:20;;;;;;;17.00;12.60;;;;;;;;;;4799013;29;20084;-76
2021/12/16 12:57:48;;;;;;;17.95;12.38;;;;;;;;;;4799200;29;20051;-76
2021/12/16 13:00:24;;;;;;;16.85;12.30;;;;;;;;;;4799863;29;20074;-76
2021/12/16 13:03:00;;;;;;;16.52;11.70;;;;;;;;;;4800904;29;20050;-76
2021/12/16 13:05:28;;;;;;;18.10;12.00;;;;;;;;;;4814898;29;20050;-75
2021/12/16 13:07:55;;;;;;;21.90;13.38;;;;;;;;;;4807693;29;20492;-74
2021/12/16 13:10:25;;;;;;;16.10;11.13;;;;;;;;;;4796123;29;20522;-74
2021/12/16 13:13:03;;;;;;;16.20;11.63;;;;;;;;;;4809860;29;20066;-76
2021/12/16 13:24:20;;;;;;;15.85;12.02;;;;;;;;;;4813649;29;20059;-76
2021/12/16 13:27:01;;;;;;;17.65;12.23;;;;;;;;;;4802261;29;20065;-76
2021/12/16 13:29:37;;;;;;;15.98;12.27;;;;;;;;;;4796220;29;20504;-75
2021/12/16 13:34:50;;;;;;;18.40;12.73;;;;;;;;;;4804715;29;20581;-75
2021/12/16 13:37:23;;;;;;;17.73;12.85;;;;;;;;;;4801570;29;20072;-76
2021/12/16 13:39:53;;;;;;;18.35;14.52;;;;;;;;;;4801017;29;20535;-75
2021/12/16 13:42:23;;;;;;;16.23;11.18;;;;;;;;;;4801772;29;20437;-75
2021/12/16 13:45:01;;;;;;;19.20;13.38;;;;;;;;;;4803549;29;20045;-75
2021/12/16 14:02:04;;;;;;;20.88;14.18;;;;;;;;;;4802479;29;20122;-75
2021/12/16 14:10:03;;;;;;;22.58;15.10;;;;;;;;;;4803653;29;20081;-75
2021/12/16 14:15:57;;;;;;;19.35;14.13;;;;;;;;;;4806603;29;20082;-74
2021/12/16 14:23:02;;;;;;;20.92;15.23;;;;;;;;;;4804881;29;20107;-74
2021/12/16 14:38:50;;;;;;;27.95;17.75;;;;;;;;;;4785395;29;20520;-74
2021/12/16 14:47:12;;;;;;;24.08;17.48;;;;;;;;;;4798872;29;20111;-73
2021/12/16 14:49:41;;;;;;;29.67;20.23;;;;;;;;;;4783929;29;20056;-73
2021/12/16 14:52:15;;;;;;;25.05;17.52;;;;;;;;;;4799234;29;20061;-73
2021/12/16 14:55:11;;;;;;;27.70;18.55;;;;;;;;;;4800154;29;20583;-73
2021/12/16 14:57:43;;;;;;;30.95;18.98;;;;;;;;;;4763211;30;20056;-73
2021/12/16 15:00:16;;;;;;;24.45;17.45;;;;;;;;;;4747887;30;20087;-73
2021/12/16 15:02:45;;;;;;;31.38;18.42;;;;;;;;;;4760755;30;20146;-73
2021/12/16 15:05:31;;;;;;;28.33;17.63;;;;;;;;;;4748060;30;20055;-73
2021/12/16 15:08:27;;;;;;;26.10;18.20;;;;;;;;;;4758468;30;20130;-73
2021/12/16 15:10:56;;;;;;;29.20;18.08;;;;;;;;;;4761601;30;20146;-74
2021/12/16 15:13:33;;;;;;;32.10;19.77;;;;;;;;;;4763206;30;20143;-73
2021/12/16 15:16:23;;;;;;;27.25;18.42;;;;;;;;;;4748208;30;20087;-73
2021/12/16 15:38:34;;;;;;;30.30;20.17;;;;;;;;;;4781293;30;20052;-74
2021/12/16 15:43:54;;;;;;;26.75;18.73;;;;;;;;;;4782337;30;20074;-73
2021/12/16 15:46:26;;;;;;;33.67;19.70;;;;;;;;;;4791631;29;20054;-75
2021/12/16 15:48:54;;;;;;;27.63;18.60;;;;;;;;;;4791570;29;20047;-75
2021/12/16 15:51:23;;;;;;;28.10;19.75;;;;;;;;;;4782321;29;20146;-75
2021/12/16 15:53:55;;;;;;;28.77;19.15;;;;;;;;;;4782639;29;20056;-76
2021/12/16 15:56:23;;;;;;;;;;;;;;;;;;4781883;29;20063;-76
2021/12/16 15:58:52;;;;;;;27.88;17.52;;;;;;;;;;4794641;29;19973;-75
2021/12/16 16:01:23;;;;;;;32.83;20.33;;;;;;;;;;4801160;29;20076;-75
2021/12/16 16:03:51;;;;;;;29.08;20.13;;;;;;;;;;4800711;29;20134;-75
2021/12/16 16:06:20;;;;;;;29.67;19.60;;;;;;;;;;4800158;29;20500;-78
2021/12/16 16:08:52;;;;;;;32.30;20.13;;;;;;;;;;4801387;29;20499;-74
2021/12/16 16:11:23;;;;;;;30.88;19.40;;;;;;;;;;4801127;29;20105;-75
2021/12/16 16:13:53;;;;;;;29.42;19.23;;;;;;;;;;4786116;29;20118;-74
2021/12/16 16:16:27;;;;;;;31.25;19.33;;;;;;;;;;4800174;29;20134;-77
2021/12/16 16:19:00;;;;;;;31.75;20.23;;;;;;;;;;4799455;29;20078;-78
2021/12/16 16:21:29;;;;;;;28.80;19.40;;;;;;;;;;4801731;29;20108;-77
2021/12/16 16:23:59;;;;;;;32.10;20.30;;;;;;;;;;4797037;29;20043;-76
2021/12/16 16:26:30;;;;;;;30.02;20.08;;;;;;;;;;4799421;29;20477;-75
2021/12/16 16:29:00;;;;;;;40.88;22.92;;;;;;;;;;4797632;29;20050;-77
2021/12/16 16:31:29;;;;;;;30.48;19.92;;;;;;;;;;4798388;29;20055;-76
2021/12/16 16:33:57;;;;;;;36.35;20.42;;;;;;;;;;4798783;29;20154;-79
2021/12/16 16:36:25;;;;;;;32.58;19.92;;;;;;;;;;4795525;29;20561;-75
2021/12/16 16:38:55;;;;;;;31.50;20.38;;;;;;;;;;4798498;29;20111;-79
2021/12/16 16:41:24;;;;;;;30.98;20.58;;;;;;;;;;4797410;29;20061;-76
2021/12/16 16:44:07;;;;;;;22.15;17.45;;;;;;;;;;4791922;29;20078;-76
2021/12/16 16:46:41;;;;;;;24.83;17.58;;;;;;;;;;4792996;29;20047;-74
2021/12/16 16:49:10;;;;;;;29.88;18.70;;;;;;;;;;4799684;29;20130;-74
2021/12/16 16:51:47;;;;;;;27.13;18.90;;;5.00;99.90;;;;;;4802395;29;20150;-77
2021/12/16 16:54:30;;;;;;;34.70;20.80;;;5.00;99.90;;;;;;4803430;29;20050;-78
2021/12/16 16:57:18;;;;;;;32.60;18.58;;;5.00;99.90;;;;;;4802931;29;20082;-74
2021/12/16 16:59:56;;;;;;;30.30;19.13;;;5.00;99.90;;;;;;4802471;29;20532;-78
2021/12/16 17:02:29;;;;;;;27.10;17.90;;;5.00;99.90;;;;;;4803386;29;20450;-76
2021/12/16 17:05:02;;;;;;;34.40;19.92;;;4.90;99.90;;;;;;4803950;29;20050;-74
2021/12/16 17:07:53;;;;;;;32.67;19.67;;;4.90;99.90;;;;;;4799335;29;20043;-75
2021/12/16 17:10:38;;;;;;;36.90;19.92;;;4.90;99.90;;;;;;4795289;29;20134;-75
2021/12/16 17:13:08;;;;;;;43.40;21.58;;;;;;;;;;4789547;29;20407;-77
2021/12/16 17:17:11;;;;;;;37.28;21.65;;;;;;;;;;4787077;29;20133;-78
2021/12/16 17:18:29;;;;;;;31.48;20.17;;;5.00;99.90;;;;;;4790554;29;20050;-76
2021/12/16 17:21:10;;;;;;;34.05;19.77;;;5.00;99.90;;;;;;4785206;29;20047;-76
2021/12/16 17:23:38;;;;;;;34.13;20.35;;;;;;;;;;4788835;29;20101;-77
2021/12/16 17:26:20;;;;;;;41.58;22.05;;;;;;;;;;4773898;29;20062;-76
2021/12/16 17:29:03;;;;;;;35.67;21.48;;;;;;;;;;4784350;29;20551;-77
2021/12/16 17:31:39;;;;;;;41.58;22.25;;;;;;;;;;4787623;29;20177;-76
2021/12/16 17:34:15;;;;;;;27.88;18.40;;;5.10;99.90;;;;;;4771113;29;20070;-75
2021/12/16 17:36:50;;;;;;;34.25;19.92;;;5.00;99.90;;;;;;4771460;29;20648;-77
2021/12/16 17:39:20;;;;;;;34.03;20.67;;;5.00;99.90;;;;;;4776549;29;20153;-76
2021/12/16 17:41:57;;;;;;;32.92;20.35;;;5.00;99.90;;;;;;4793575;29;20146;-76
2021/12/16 17:44:27;;;;;;;35.47;20.00;;;4.90;99.90;;;;;;4793384;29;20061;-76
2021/12/16 17:46:58;;;;;;;35.63;19.95;;;4.90;99.90;;;;;;4763627;29;20127;-76
2021/12/16 17:49:26;;;;;;;36.58;22.98;;;;;;;;;;4778223;29;20234;-74
2021/12/16 17:51:53;;;;;;;37.05;21.42;;;5.00;99.90;;;;;;4779659;29;20054;-76
2021/12/16 17:54:21;;;;;;;42.17;23.77;;;4.90;99.90;;;;;;4792814;29;20447;-75
2021/12/16 17:56:53;;;;;;;40.25;21.45;;;4.90;99.90;;;;;;4781966;29;20124;-75
2021/12/16 17:59:29;;;;;;;39.83;21.10;;;4.90;99.90;;;;;;4798567;29;20059;-76
2021/12/16 18:01:56;;;;;;;37.45;20.50;;;5.00;99.90;;;;;;4796014;29;20107;-78
2021/12/16 18:04:23;;;;;;;37.28;20.70;;;5.00;99.90;;;;;;4795737;29;20070;-77
2021/12/16 18:06:59;;;;;;;38.83;20.35;;;5.00;99.90;;;;;;4797597;29;20130;-77
2021/12/16 18:09:30;;;;;;;39.00;22.33;;;5.00;99.90;;;;;;4797453;29;20142;-77
2021/12/16 18:12:06;;;;;;;49.15;24.38;;;5.10;99.90;;;;;;4794425;29;20139;-75
2021/12/16 18:14:54;;;;;;;51.75;23.92;;;5.00;99.90;;;;;;4800981;29;20530;-76
2021/12/16 18:17:26;;;;;;;31.83;20.60;;;5.00;99.90;;;;;;4792427;29;20504;-75